Brejolandia, Brazil
Current Conditions -  °F | °C
As of 5:00 PM on Thursday 18 Dec 2014 (Local Time) from SBQV Reporting Station
Light Rain Light Rain  
Wind Chill: 70°   Ceiling: 7000
Heat Index: 70°   Visibility: 5mi
Dew Point: 70°   Wind: 12mph
Humidity: 100%   Direction: 50°NE
Pressure: 29.94"   Gusts: NA
Location:  12.48°S, 43.97°W
Report Text: SBQV 182000Z 05010KT 8000 -RA FEW010 SCT025 BKN070 21/21 Q1014
Loading
Personal Weather Stations






























Interactive Weather Map New forecast layout! Learn more

10-Day Weather Forecast

Advertisements
Track Severe Weather on mobile